createdAt,value
2016-11-04T00:00:56.560Z,7.31
2016-11-04T00:01:55.754Z,7.32
2016-11-04T00:02:55.793Z,7.37
2016-11-04T00:03:56.091Z,7.4
2016-11-04T00:04:55.736Z,7.26
2016-11-04T00:05:55.893Z,7.44
2016-11-04T00:06:55.718Z,7.52
2016-11-04T00:07:55.758Z,7.49
2016-11-04T00:08:56.349Z,7.47
2016-11-04T00:09:55.755Z,7.37
2016-11-04T00:10:56.585Z,7.55
2016-11-04T00:11:55.847Z,7.56
2016-11-04T00:12:55.748Z,7.53
2016-11-04T00:13:55.770Z,7.59
2016-11-04T00:14:55.738Z,7.6
2016-11-04T00:15:56.617Z,7.59
2016-11-04T00:16:56.227Z,7.53
2016-11-04T00:17:55.801Z,7.59
2016-11-04T00:18:55.802Z,7.66
2016-11-04T00:19:56.770Z,7.53
2016-11-04T00:20:56.640Z,7.63
2016-11-04T00:21:55.738Z,7.59
2016-11-04T00:22:55.776Z,7.69
2016-11-04T00:23:56.083Z,7.55
2016-11-04T00:24:56.036Z,7.62
2016-11-04T00:25:56.048Z,7.6
2016-11-04T00:26:55.770Z,7.75
2016-11-04T00:27:55.799Z,7.67
2016-11-04T00:28:55.765Z,7.81
2016-11-04T00:29:56.147Z,7.79
2016-11-04T00:30:55.690Z,7.78
2016-11-04T00:31:55.733Z,7.69
2016-11-04T00:32:55.800Z,7.77
2016-11-04T00:33:56.166Z,7.74
2016-11-04T00:34:56.176Z,7.72
2016-11-04T00:35:55.754Z,7.67
2016-11-04T00:36:55.943Z,7.66
2016-11-04T00:37:55.745Z,7.84
2016-11-04T00:38:55.752Z,7.6
2016-11-04T00:39:55.933Z,7.78
2016-11-04T00:40:55.767Z,7.71
2016-11-04T00:41:55.919Z,7.62
2016-11-04T00:42:55.937Z,7.62
2016-11-04T00:43:55.754Z,7.53
2016-11-04T00:44:55.732Z,7.67
2016-11-04T00:45:55.752Z,7.53
2016-11-04T00:46:55.818Z,7.63
2016-11-04T00:47:55.739Z,7.52
2016-11-04T00:48:55.787Z,7.53
2016-11-04T00:49:56.001Z,7.56
2016-11-04T00:50:55.813Z,7.62
2016-11-04T00:51:55.984Z,7.58
2016-11-04T00:52:56.346Z,7.59
2016-11-04T00:53:56.043Z,7.58
2016-11-04T00:54:55.976Z,7.47
2016-11-04T00:55:55.851Z,7.45
2016-11-04T00:56:55.845Z,7.5
2016-11-04T00:57:55.918Z,7.47
2016-11-04T00:58:55.889Z,7.38
2016-11-04T00:59:55.931Z,7.42
2016-11-04T01:00:55.988Z,7.45
2016-11-04T01:01:56.068Z,7.35
2016-11-04T01:02:55.885Z,7.37
2016-11-04T01:03:55.750Z,7.31
2016-11-04T01:04:55.731Z,7.41
2016-11-04T01:05:55.744Z,7.5
2016-11-04T01:06:55.825Z,7.38
2016-11-04T01:07:55.742Z,7.27
2016-11-04T01:08:55.752Z,7.31
2016-11-04T01:09:55.846Z,7.22
2016-11-04T01:10:55.729Z,7.41
2016-11-04T01:11:55.726Z,7.32
2016-11-04T01:12:55.831Z,7.2
2016-11-04T01:13:55.823Z,7.22
2016-11-04T01:14:55.780Z,7.19
2016-11-04T01:15:55.756Z,7.23
2016-11-04T01:16:55.760Z,7.2
2016-11-04T01:17:56.247Z,7.12
2016-11-04T01:18:55.799Z,7.23
2016-11-04T01:19:55.733Z,7.2
2016-11-04T01:20:55.762Z,7.13
2016-11-04T01:21:55.770Z,7.16
2016-11-04T01:22:55.791Z,7.09
2016-11-04T01:23:55.781Z,7.09
2016-11-04T01:24:55.855Z,7.08
2016-11-04T01:25:55.789Z,7.09
2016-11-04T01:26:55.839Z,7.23
2016-11-04T01:27:55.782Z,7.05
2016-11-04T01:28:55.822Z,7.09
2016-11-04T01:29:55.809Z,7.02
2016-11-04T01:30:55.771Z,6.99
2016-11-04T01:31:55.775Z,7.07
2016-11-04T01:32:55.766Z,7.12
2016-11-04T01:33:55.765Z,7.09
2016-11-04T01:34:55.764Z,7.09
2016-11-04T01:35:55.783Z,7.04
2016-11-04T01:36:55.754Z,7.09
2016-11-04T01:37:55.828Z,6.99
2016-11-04T01:38:55.828Z,7.05
2016-11-04T01:39:55.786Z,7.05
2016-11-04T01:40:55.771Z,7.05
2016-11-04T01:41:55.794Z,7.01
2016-11-04T01:42:55.852Z,7.02
2016-11-04T01:43:55.806Z,7.09
2016-11-04T01:44:55.777Z,7.07
2016-11-04T01:45:55.809Z,7.09
2016-11-04T01:46:55.791Z,7.05
2016-11-04T01:47:55.806Z,7.07
2016-11-04T01:48:55.803Z,7.12
2016-11-04T01:49:55.842Z,7.02
2016-11-04T01:50:55.837Z,7.16
2016-11-04T01:51:55.854Z,7.05
2016-11-04T01:52:56.704Z,7.09
2016-11-04T01:53:55.832Z,7.19
2016-11-04T01:54:55.813Z,6.99
2016-11-04T01:55:55.787Z,7.15
2016-11-04T01:56:55.810Z,7.07
2016-11-04T01:57:55.823Z,7.17
2016-11-04T01:58:55.809Z,7.07
2016-11-04T01:59:55.843Z,6.99
2016-11-04T02:00:55.834Z,7.16
2016-11-04T02:01:55.841Z,7.08
2016-11-04T02:02:55.848Z,7.05
2016-11-04T02:03:55.829Z,7.17
2016-11-04T02:04:55.806Z,7.04
2016-11-04T02:05:55.828Z,7.08
2016-11-04T02:06:55.806Z,7.12
2016-11-04T02:07:55.880Z,7.17
2016-11-04T02:08:55.901Z,6.99
2016-11-04T02:09:55.854Z,7.04
2016-11-04T02:10:55.847Z,7.08
2016-11-04T02:11:55.818Z,7.07
2016-11-04T02:12:55.821Z,7.09
2016-11-04T02:13:55.876Z,7.08
2016-11-04T02:14:55.872Z,7.02
2016-11-04T02:15:55.847Z,6.99
2016-11-04T02:16:55.844Z,6.99
2016-11-04T02:17:55.827Z,6.95
2016-11-04T02:18:56.117Z,7.01
2016-11-04T02:19:55.819Z,7.02
2016-11-04T02:20:55.808Z,7.16
2016-11-04T02:21:55.825Z,7.13
2016-11-04T02:22:55.808Z,7.05
2016-11-04T02:23:55.834Z,7.02
2016-11-04T02:24:56.019Z,7.09
2016-11-04T02:25:55.796Z,6.99
2016-11-04T02:26:55.782Z,7.16
2016-11-04T02:27:55.792Z,7.08
2016-11-04T02:28:55.852Z,7.01
2016-11-04T02:29:55.796Z,7.17
2016-11-04T02:30:55.808Z,7.08
2016-11-04T02:31:55.825Z,7.16
2016-11-04T02:32:55.808Z,6.97
2016-11-04T02:33:55.800Z,7.07
2016-11-04T02:34:55.785Z,7.12
2016-11-04T02:35:55.798Z,7.12
2016-11-04T02:36:55.926Z,7.08
2016-11-04T02:37:56.051Z,7.24
2016-11-04T02:38:55.846Z,7.08
2016-11-04T02:39:55.849Z,7.09
2016-11-04T02:40:55.839Z,7.13
2016-11-04T02:41:55.859Z,7.09
2016-11-04T02:42:55.855Z,7.2
2016-11-04T02:43:55.846Z,7.17
2016-11-04T02:44:55.823Z,7.22
2016-11-04T02:45:55.830Z,7.19
2016-11-04T02:46:55.826Z,7.24
2016-11-04T02:47:55.856Z,7.24
2016-11-04T02:48:55.832Z,7.19
2016-11-04T02:49:55.815Z,7.16
2016-11-04T02:50:55.820Z,7.13
2016-11-04T02:51:55.842Z,7.24
2016-11-04T02:52:55.813Z,7.2
2016-11-04T02:53:55.829Z,7.09
2016-11-04T02:54:55.894Z,7.23
2016-11-04T02:55:55.814Z,7.16
2016-11-04T02:56:55.804Z,7.19
2016-11-04T02:57:55.808Z,7.19
2016-11-04T02:58:55.803Z,7.24
2016-11-04T02:59:55.820Z,7.24
2016-11-04T03:00:55.808Z,7.22
2016-11-04T03:01:55.804Z,7.29
2016-11-04T03:02:55.855Z,7.24
2016-11-04T03:03:55.849Z,7.27
2016-11-04T03:04:55.826Z,7.22
2016-11-04T03:05:55.823Z,7.26
2016-11-04T03:06:55.840Z,7.35
2016-11-04T03:07:55.796Z,7.34
2016-11-04T03:08:55.841Z,7.41
2016-11-04T03:09:55.816Z,7.34
2016-11-04T03:10:55.838Z,7.32
2016-11-04T03:11:55.833Z,7.31
2016-11-04T03:12:55.841Z,7.35
2016-11-04T03:13:55.874Z,7.34
2016-11-04T03:14:55.835Z,7.29
2016-11-04T03:15:55.849Z,7.32
2016-11-04T03:16:55.860Z,7.31
2016-11-04T03:17:55.834Z,7.37
2016-11-04T03:18:56.614Z,7.29
2016-11-04T03:19:55.881Z,7.35
2016-11-04T03:20:55.871Z,7.4
2016-11-04T03:21:55.880Z,7.4
2016-11-04T03:22:55.879Z,7.38
2016-11-04T03:23:55.861Z,7.41
2016-11-04T03:24:55.860Z,7.45
2016-11-04T03:25:55.854Z,7.4
2016-11-04T03:26:55.848Z,7.26
2016-11-04T03:27:55.848Z,7.42
2016-11-04T03:28:55.864Z,7.4
2016-11-04T03:29:55.855Z,7.41
2016-11-04T03:30:55.838Z,7.35
2016-11-04T03:31:55.842Z,7.35
2016-11-04T03:32:55.869Z,7.4
2016-11-04T03:33:55.874Z,7.31
2016-11-04T03:34:55.867Z,7.34
2016-11-04T03:35:55.829Z,7.32
2016-11-04T03:36:55.880Z,7.37
2016-11-04T03:37:55.868Z,7.37
2016-11-04T03:38:57.042Z,7.2
2016-11-04T03:39:55.870Z,7.29
2016-11-04T03:40:55.905Z,7.23
2016-11-04T03:41:55.848Z,7.35
2016-11-04T03:42:55.875Z,7.24
2016-11-04T03:43:55.925Z,7.19
2016-11-04T03:44:55.900Z,7.19
2016-11-04T03:45:55.940Z,7.24
2016-11-04T03:46:55.895Z,7.24
2016-11-04T03:47:55.923Z,7.4
2016-11-04T03:48:55.909Z,7.26
2016-11-04T03:49:55.867Z,7.34
2016-11-04T03:50:55.906Z,7.38
2016-11-04T03:51:55.862Z,7.29
2016-11-04T03:52:55.882Z,7.31
2016-11-04T03:53:55.877Z,7.19
2016-11-04T03:54:55.948Z,7.23
2016-11-04T03:55:55.866Z,7.38
2016-11-04T03:56:55.864Z,7.34
2016-11-04T03:57:55.888Z,7.44
2016-11-04T03:58:55.909Z,7.37
2016-11-04T03:59:55.862Z,7.31
2016-11-04T04:00:55.860Z,7.37
2016-11-04T04:01:55.876Z,7.37
2016-11-04T04:02:55.890Z,7.32
2016-11-04T04:03:55.905Z,7.24
2016-11-04T04:04:55.877Z,7.4
2016-11-04T04:05:55.855Z,7.31
2016-11-04T04:06:55.901Z,7.41
2016-11-04T04:07:55.896Z,7.34
2016-11-04T04:08:55.944Z,7.4
2016-11-04T04:09:55.871Z,7.47
2016-11-04T04:10:55.906Z,7.41
2016-11-04T04:11:55.932Z,7.42
2016-11-04T04:12:55.882Z,7.38
2016-11-04T04:13:55.890Z,7.45
2016-11-04T04:14:55.873Z,7.5
2016-11-04T04:15:55.890Z,7.44
2016-11-04T04:16:55.899Z,7.45
2016-11-04T04:17:55.924Z,7.49
2016-11-04T04:18:55.899Z,7.53
2016-11-04T04:19:55.896Z,7.49
2016-11-04T04:20:55.895Z,7.45
2016-11-04T04:21:55.900Z,7.44
2016-11-04T04:22:55.890Z,7.45
2016-11-04T04:23:55.890Z,7.5
2016-11-04T04:24:55.863Z,7.62
2016-11-04T04:25:55.902Z,7.5
2016-11-04T04:26:55.932Z,7.52
2016-11-04T04:27:55.902Z,7.52
2016-11-04T04:28:55.948Z,7.53
2016-11-04T04:29:55.938Z,7.47
2016-11-04T04:30:55.929Z,7.56
2016-11-04T04:31:55.927Z,7.55
2016-11-04T04:32:55.921Z,7.53
2016-11-04T04:33:55.912Z,7.55
2016-11-04T04:34:55.890Z,7.56
2016-11-04T04:35:55.893Z,7.5
2016-11-04T04:36:55.921Z,7.63
2016-11-04T04:37:55.937Z,7.49
2016-11-04T04:38:55.893Z,7.58
2016-11-04T04:39:55.899Z,7.47
2016-11-04T04:40:55.905Z,7.58
2016-11-04T04:41:55.905Z,7.55
2016-11-04T04:42:55.905Z,7.6
2016-11-04T04:43:55.940Z,7.53
2016-11-04T04:44:55.892Z,7.55
2016-11-04T04:45:55.900Z,7.53
2016-11-04T04:46:55.931Z,7.67
2016-11-04T04:47:55.902Z,7.5
2016-11-04T04:48:55.950Z,7.62
2016-11-04T04:49:55.919Z,7.59
2016-11-04T04:50:55.906Z,7.62
2016-11-04T04:51:55.888Z,7.62
2016-11-04T04:52:55.871Z,7.55
2016-11-04T04:53:55.918Z,7.6
2016-11-04T04:54:55.909Z,7.63
2016-11-04T04:55:55.855Z,7.49
2016-11-04T04:56:55.907Z,7.6
2016-11-04T04:57:55.893Z,7.66
2016-11-04T04:58:55.922Z,7.62
2016-11-04T04:59:55.876Z,7.69
2016-11-04T05:00:55.918Z,7.78
2016-11-04T05:01:55.881Z,7.58
2016-11-04T05:02:55.894Z,7.58
2016-11-04T05:03:55.979Z,7.66
2016-11-04T05:04:55.902Z,7.75
2016-11-04T05:05:55.958Z,7.67
2016-11-04T05:06:55.944Z,7.69
2016-11-04T05:07:55.950Z,7.58
2016-11-04T05:08:55.961Z,7.69
2016-11-04T05:09:55.936Z,7.67
2016-11-04T05:10:55.909Z,7.67
2016-11-04T05:11:55.932Z,7.66
2016-11-04T05:12:55.940Z,7.66
2016-11-04T05:13:55.924Z,7.67
2016-11-04T05:14:55.922Z,7.72
2016-11-04T05:15:55.928Z,7.72
2016-11-04T05:16:55.999Z,7.66
2016-11-04T05:17:56.048Z,7.6
2016-11-04T05:18:55.996Z,7.59
2016-11-04T05:19:55.986Z,7.59
2016-11-04T05:20:55.987Z,7.62
2016-11-04T05:21:56.010Z,7.53
2016-11-04T05:22:56.057Z,7.6
2016-11-04T05:23:56.121Z,7.6
2016-11-04T05:24:56.172Z,7.66
2016-11-04T05:25:56.079Z,7.63
2016-11-04T05:26:56.016Z,7.6
2016-11-04T05:27:56.130Z,7.58
2016-11-04T05:28:56.105Z,7.58
2016-11-04T05:29:56.039Z,7.53
2016-11-04T05:30:56.099Z,7.55
2016-11-04T05:31:56.054Z,7.47
2016-11-04T05:32:56.099Z,7.52
2016-11-04T05:33:56.034Z,7.55
2016-11-04T05:34:55.996Z,7.53
2016-11-04T05:35:56.015Z,7.58
2016-11-04T05:36:56.061Z,7.55
2016-11-04T05:37:56.029Z,7.5
2016-11-04T05:38:56.323Z,7.49
2016-11-04T05:39:56.059Z,7.59
2016-11-04T05:40:56.052Z,7.53
2016-11-04T05:41:56.019Z,7.44
2016-11-04T05:42:56.065Z,7.55
2016-11-04T05:43:56.011Z,7.52
2016-11-04T05:44:55.974Z,7.53
2016-11-04T05:45:55.965Z,7.44
2016-11-04T05:46:55.968Z,7.49
2016-11-04T05:47:56.020Z,7.56
2016-11-04T05:48:55.953Z,7.52
2016-11-04T05:49:55.927Z,7.47
2016-11-04T05:50:55.934Z,7.55
2016-11-04T05:51:55.940Z,7.5
2016-11-04T05:52:55.981Z,7.55
2016-11-04T05:53:55.978Z,7.56
2016-11-04T05:54:56.040Z,7.52
2016-11-04T05:55:55.994Z,7.45
2016-11-04T05:56:56.038Z,7.5
2016-11-04T05:57:56.009Z,7.34
2016-11-04T05:58:55.997Z,7.42
2016-11-04T05:59:55.999Z,7.41
2016-11-04T06:00:55.998Z,7.37
2016-11-04T06:01:55.946Z,7.47
2016-11-04T06:02:55.975Z,7.44
2016-11-04T06:03:55.998Z,7.4
2016-11-04T06:04:55.975Z,7.34
2016-11-04T06:05:55.959Z,7.41
2016-11-04T06:06:55.952Z,7.4
2016-11-04T06:07:55.995Z,7.38
2016-11-04T06:08:56.002Z,7.31
2016-11-04T06:09:56.864Z,7.38
2016-11-04T06:10:55.953Z,7.38
2016-11-04T06:11:55.969Z,7.4
2016-11-04T06:12:56.023Z,7.5
2016-11-04T06:13:56.347Z,7.42
2016-11-04T06:14:56.046Z,7.38
2016-11-04T06:15:56.068Z,7.34
2016-11-04T06:16:56.024Z,7.44
2016-11-04T06:17:56.048Z,7.42
2016-11-04T06:18:56.026Z,7.41
2016-11-04T06:19:56.921Z,7.5
2016-11-04T06:20:55.987Z,7.4
2016-11-04T06:21:56.037Z,7.49
2016-11-04T06:22:56.103Z,7.37
2016-11-04T06:23:56.038Z,7.4
2016-11-04T06:24:56.029Z,7.42
2016-11-04T06:25:56.660Z,7.47
2016-11-04T06:26:56.027Z,7.4
2016-11-04T06:27:55.991Z,7.35
2016-11-04T06:28:56.342Z,7.41
2016-11-04T06:29:56.016Z,7.47
2016-11-04T06:30:56.027Z,7.32
2016-11-04T06:31:56.028Z,7.32
2016-11-04T06:32:55.980Z,7.5
2016-11-04T06:33:56.041Z,7.42
2016-11-04T06:34:56.006Z,7.52
2016-11-04T06:35:55.997Z,7.41
2016-11-04T06:36:56.017Z,7.44
2016-11-04T06:37:55.984Z,7.45
2016-11-04T06:38:56.000Z,7.34
2016-11-04T06:39:56.010Z,7.41
2016-11-04T06:40:56.225Z,7.5
2016-11-04T06:41:56.016Z,7.38
2016-11-04T06:42:55.996Z,7.38
2016-11-04T06:43:56.376Z,7.45
2016-11-04T06:44:56.025Z,7.58
2016-11-04T06:45:56.051Z,7.56
2016-11-04T06:46:56.000Z,7.45
2016-11-04T06:47:56.004Z,7.4
2016-11-04T06:48:56.013Z,7.34
2016-11-04T06:49:55.976Z,7.32
2016-11-04T06:50:55.993Z,7.44
2016-11-04T06:51:56.009Z,7.49
2016-11-04T06:52:56.022Z,7.49
2016-11-04T06:53:56.185Z,7.31
2016-11-04T06:54:56.036Z,7.38
2016-11-04T06:55:56.029Z,7.56
2016-11-04T06:56:56.035Z,7.4
2016-11-04T06:57:56.043Z,7.42
2016-11-04T06:58:56.128Z,7.49
2016-11-04T06:59:56.008Z,7.53
2016-11-04T07:00:56.023Z,7.53
2016-11-04T07:01:55.998Z,7.38
2016-11-04T07:02:57.099Z,7.53
2016-11-04T07:03:56.081Z,7.56
2016-11-04T07:04:55.990Z,7.58
2016-11-04T07:05:55.987Z,7.45
2016-11-04T07:06:56.048Z,7.49
2016-11-04T07:07:56.007Z,7.5
2016-11-04T07:08:55.997Z,7.42
2016-11-04T07:09:56.001Z,7.52
2016-11-04T07:10:56.084Z,7.49
2016-11-04T07:11:56.013Z,7.52
2016-11-04T07:12:56.035Z,7.4
2016-11-04T07:13:56.042Z,7.55
2016-11-04T07:14:55.998Z,7.53
2016-11-04T07:15:55.982Z,7.66
2016-11-04T07:16:57.838Z,7.6
2016-11-04T07:17:56.224Z,7.52
2016-11-04T07:18:56.988Z,7.53
2016-11-04T07:19:56.161Z,7.6
2016-11-04T07:20:56.138Z,7.5
2016-11-04T07:21:56.031Z,7.52
2016-11-04T07:22:56.191Z,7.53
2016-11-04T07:23:56.232Z,7.53
2016-11-04T07:24:56.141Z,7.55
2016-11-04T07:25:56.037Z,7.59
2016-11-04T07:26:56.610Z,7.56
2016-11-04T07:27:56.095Z,7.55
2016-11-04T07:28:56.533Z,7.62
2016-11-04T07:29:56.268Z,7.62
2016-11-04T07:31:02.325Z,7.66
2016-11-04T07:32:04.323Z,7.52
2016-11-04T07:33:01.429Z,7.69
2016-11-04T07:33:58.737Z,7.79
2016-11-04T07:35:04.228Z,7.71
2016-11-04T07:36:02.028Z,7.63
2016-11-04T07:37:02.906Z,7.63
2016-11-04T07:38:03.508Z,7.72
2016-11-04T07:39:02.305Z,7.72
2016-11-04T07:40:03.448Z,7.72
2016-11-04T07:41:03.708Z,7.81
2016-11-04T07:42:03.217Z,7.71
2016-11-04T07:43:03.419Z,7.75
2016-11-04T07:44:03.730Z,7.72
2016-11-04T07:45:03.236Z,7.72
2016-11-04T07:46:02.839Z,7.71
2016-11-04T07:47:02.685Z,7.85
2016-11-04T07:48:02.807Z,7.77
2016-11-04T07:49:02.567Z,7.97
2016-11-04T07:50:03.202Z,7.93
2016-11-04T07:51:02.994Z,7.96
2016-11-04T07:52:03.288Z,7.94
2016-11-04T07:53:03.204Z,7.94
2016-11-04T07:54:00.867Z,8.17
2016-11-04T07:55:02.122Z,8.14
2016-11-04T07:56:02.833Z,8.1
2016-11-04T07:57:02.641Z,8.22
2016-11-04T07:58:01.140Z,8.2
2016-11-04T07:59:00.100Z,8.29
2016-11-04T07:59:56.083Z,8.33
2016-11-04T08:00:56.081Z,8.44
2016-11-04T08:01:56.120Z,8.35
2016-11-04T08:02:56.091Z,8.5
2016-11-04T08:03:56.125Z,8.54
2016-11-04T08:04:56.077Z,8.63
2016-11-04T08:05:56.105Z,8.66
2016-11-04T08:06:56.154Z,8.75
2016-11-04T08:07:56.055Z,8.69
2016-11-04T08:08:56.266Z,8.78
2016-11-04T08:09:56.103Z,8.81
2016-11-04T08:10:56.067Z,8.88
2016-11-04T08:11:56.584Z,8.9
2016-11-04T08:12:56.072Z,8.94
2016-11-04T08:13:56.517Z,8.97
2016-11-04T08:14:56.058Z,9.06
2016-11-04T08:15:56.067Z,9.01
2016-11-04T08:16:56.099Z,9.01
2016-11-04T08:17:56.747Z,8.97
2016-11-04T08:18:56.090Z,9.12
2016-11-04T08:19:56.129Z,9.13
2016-11-04T08:20:56.154Z,9.3
2016-11-04T08:21:56.746Z,9.34
2016-11-04T08:22:56.083Z,9.25
2016-11-04T08:23:56.145Z,9.2
2016-11-04T08:24:56.070Z,9.23
2016-11-04T08:25:57.422Z,9.24
2016-11-04T08:27:04.170Z,9.3
2016-11-04T08:28:21.380Z,9.25
2016-11-04T08:29:19.318Z,9.24
2016-11-04T08:30:07.326Z,9.32
2016-11-04T08:31:26.903Z,9.32
2016-11-04T08:32:02.215Z,9.42
2016-11-04T08:32:56.118Z,9.32
2016-11-04T08:33:56.147Z,9.27
2016-11-04T08:34:56.085Z,9.25
2016-11-04T08:35:56.116Z,9.32
2016-11-04T08:36:56.094Z,9.48
2016-11-04T08:37:56.097Z,9.25
2016-11-04T08:38:56.142Z,9.35
2016-11-04T08:39:56.073Z,9.34
2016-11-04T08:40:56.116Z,9.5
2016-11-04T08:41:57.646Z,9.43
2016-11-04T08:42:56.080Z,9.49
2016-11-04T08:43:56.170Z,9.38
2016-11-04T08:44:56.070Z,9.5
2016-11-04T08:45:56.090Z,9.52
2016-11-04T08:46:56.128Z,9.38
2016-11-04T08:47:56.109Z,9.53
2016-11-04T08:48:56.070Z,9.46
2016-11-04T08:49:56.109Z,9.52
2016-11-04T08:50:56.062Z,9.56
2016-11-04T08:51:56.136Z,9.58
2016-11-04T08:52:56.043Z,9.58
2016-11-04T08:53:56.138Z,9.61
2016-11-04T08:54:58.159Z,9.61
2016-11-04T08:55:56.133Z,9.6
2016-11-04T08:56:56.103Z,9.58
2016-11-04T08:57:56.106Z,9.56
2016-11-04T08:58:56.169Z,9.63
2016-11-04T08:59:56.114Z,9.7
2016-11-04T09:00:56.104Z,9.7
2016-11-04T09:01:56.149Z,9.76
2016-11-04T09:02:56.151Z,9.79
2016-11-04T09:03:56.143Z,9.73
2016-11-04T09:04:56.093Z,9.66
2016-11-04T09:05:56.343Z,9.86
2016-11-04T09:06:56.125Z,9.81
2016-11-04T09:07:56.135Z,9.82
2016-11-04T09:08:56.141Z,9.75
2016-11-04T09:09:56.135Z,9.81
2016-11-04T09:10:56.584Z,9.89
2016-11-04T09:11:56.142Z,9.83
2016-11-04T09:12:56.135Z,9.82
2016-11-04T09:13:57.099Z,9.93
2016-11-04T09:14:56.178Z,9.89
2016-11-04T09:15:56.399Z,9.83
2016-11-04T09:16:58.724Z,10.01
2016-11-04T09:17:56.297Z,9.91
2016-11-04T09:18:56.199Z,9.94
2016-11-04T09:19:56.215Z,9.99
2016-11-04T09:20:56.298Z,9.96
2016-11-04T09:21:56.389Z,10.09
2016-11-04T09:22:56.190Z,10.03
2016-11-04T09:23:56.245Z,9.99
2016-11-04T09:24:56.262Z,10.1
2016-11-04T09:25:56.297Z,10.06
2016-11-04T09:26:56.231Z,10.09
2016-11-04T09:27:56.204Z,10.14
2016-11-04T09:28:56.247Z,10.06
2016-11-04T09:29:56.277Z,10.07
2016-11-04T09:30:56.389Z,10.19
2016-11-04T09:31:56.180Z,10.09
2016-11-04T09:32:56.150Z,10.14
2016-11-04T09:33:56.348Z,10.21
2016-11-04T09:34:56.209Z,10.24
2016-11-04T09:35:56.319Z,10.22
2016-11-04T09:36:56.143Z,10.42
2016-11-04T09:37:56.371Z,10.25
2016-11-04T09:38:56.206Z,10.42
2016-11-04T09:39:56.339Z,10.46
2016-11-04T09:40:56.290Z,10.44
2016-11-04T09:41:56.219Z,10.59
2016-11-04T09:42:56.394Z,10.6
2016-11-04T09:44:00.643Z,10.62
2016-11-04T09:44:56.298Z,10.66
2016-11-04T09:45:56.579Z,10.76
2016-11-04T09:46:56.301Z,10.7
2016-11-04T09:47:56.217Z,10.73
2016-11-04T09:48:56.364Z,10.74
2016-11-04T09:49:56.412Z,10.73
2016-11-04T09:50:56.197Z,10.86
2016-11-04T09:51:56.306Z,10.89
2016-11-04T09:52:56.345Z,10.95
2016-11-04T09:53:56.313Z,11.02
2016-11-04T09:54:56.200Z,11.07
2016-11-04T09:56:00.519Z,11.1
2016-11-04T09:56:57.967Z,11.09
2016-11-04T09:57:56.207Z,11.24
2016-11-04T09:58:56.143Z,11.31
2016-11-04T09:59:56.484Z,11.2
2016-11-04T10:00:56.240Z,11.35
2016-11-04T10:01:56.124Z,11.29
2016-11-04T10:02:56.559Z,11.46
2016-11-04T10:03:56.407Z,11.29
2016-11-04T10:04:56.139Z,11.46
2016-11-04T10:05:56.150Z,11.56
2016-11-04T10:06:56.182Z,11.68
2016-11-04T10:07:56.150Z,11.71
2016-11-04T10:08:56.193Z,11.86
2016-11-04T10:09:56.192Z,12.01
2016-11-04T10:10:56.186Z,12.04
2016-11-04T10:11:56.118Z,11.93
2016-11-04T10:12:56.145Z,12.01
2016-11-04T10:13:56.172Z,11.99
2016-11-04T10:14:56.129Z,12.16
2016-11-04T10:15:56.145Z,12.09
2016-11-04T10:16:56.307Z,12.15
2016-11-04T10:17:56.266Z,12.24
2016-11-04T10:18:56.188Z,12.33
2016-11-04T10:19:56.144Z,12.41
2016-11-04T10:20:56.289Z,12.39
2016-11-04T10:21:56.662Z,12.34
2016-11-04T10:22:56.432Z,12.24
2016-11-04T10:23:56.202Z,12.29
2016-11-04T10:24:56.144Z,12.27
2016-11-04T10:25:56.196Z,12.11
2016-11-04T10:26:56.221Z,12.09
2016-11-04T10:27:56.166Z,12.2
2016-11-04T10:28:56.171Z,12.13
2016-11-04T10:29:56.193Z,12.23
2016-11-04T10:30:56.145Z,12.09
2016-11-04T10:31:56.148Z,11.97
2016-11-04T10:32:56.205Z,11.97
2016-11-04T10:33:56.230Z,12.06
2016-11-04T10:34:56.235Z,11.97
2016-11-04T10:35:56.202Z,12.06
2016-11-04T10:36:56.211Z,11.94
2016-11-04T10:37:56.259Z,12.04
2016-11-04T10:38:56.295Z,11.87
2016-11-04T10:39:56.711Z,11.9
2016-11-04T10:40:56.238Z,11.8
2016-11-04T10:41:56.317Z,11.75
2016-11-04T10:42:57.050Z,11.77
2016-11-04T10:43:56.243Z,11.68
2016-11-04T10:44:56.857Z,11.54
2016-11-04T10:45:56.189Z,11.57
2016-11-04T10:46:56.226Z,11.44
2016-11-04T10:47:56.180Z,11.53
2016-11-04T10:48:56.196Z,11.49
2016-11-04T10:49:56.186Z,11.49
2016-11-04T10:50:56.204Z,11.44
2016-11-04T10:51:56.183Z,11.39
2016-11-04T10:52:56.595Z,11.38
2016-11-04T10:53:56.239Z,11.41
2016-11-04T10:54:56.277Z,11.46
2016-11-04T10:55:56.225Z,11.46
2016-11-04T10:56:56.233Z,11.52
2016-11-04T10:57:56.284Z,11.39
2016-11-04T10:58:56.302Z,11.43
2016-11-04T10:59:56.514Z,11.41
2016-11-04T11:00:56.657Z,11.25
2016-11-04T11:01:56.916Z,11.28
2016-11-04T11:02:56.335Z,11.28
2016-11-04T11:03:56.273Z,11.28
2016-11-04T11:04:56.276Z,11.27
2016-11-04T11:05:56.401Z,11.27
2016-11-04T11:06:56.374Z,11.31
2016-11-04T11:07:56.251Z,11.28
2016-11-04T11:08:56.286Z,11.29
2016-11-04T11:09:56.267Z,11.25
2016-11-04T11:10:56.228Z,11.25
2016-11-04T11:11:56.292Z,11.24
2016-11-04T11:12:56.565Z,11.2
2016-11-04T11:13:56.257Z,11.14
2016-11-04T11:14:56.441Z,11.27
2016-11-04T11:15:56.255Z,11.11
2016-11-04T11:16:56.414Z,11.27
2016-11-04T11:17:56.354Z,11.19
2016-11-04T11:18:56.375Z,11.21
2016-11-04T11:19:56.190Z,11.06
2016-11-04T11:20:56.241Z,11.2
2016-11-04T11:21:56.369Z,10.98
2016-11-04T11:22:56.393Z,11.1
2016-11-04T11:23:56.322Z,11.01
2016-11-04T11:24:56.347Z,10.98
2016-11-04T11:25:56.232Z,11.11
2016-11-04T11:26:56.312Z,10.92
2016-11-04T11:27:56.350Z,10.98
2016-11-04T11:28:56.531Z,10.86
2016-11-04T11:29:56.260Z,10.81
2016-11-04T11:30:56.335Z,10.92
2016-11-04T11:31:56.302Z,10.94
2016-11-04T11:32:56.291Z,10.89
2016-11-04T11:33:56.424Z,10.92
2016-11-04T11:34:56.217Z,10.88
2016-11-04T11:35:56.540Z,10.92
2016-11-04T11:36:56.232Z,10.94
2016-11-04T11:37:56.354Z,10.86
2016-11-04T11:38:56.252Z,10.94
2016-11-04T11:39:56.194Z,10.86
2016-11-04T11:40:56.252Z,10.89
2016-11-04T11:41:56.267Z,10.83
2016-11-04T11:42:56.222Z,10.99
2016-11-04T11:43:56.278Z,10.86
2016-11-04T11:44:56.261Z,10.91
2016-11-04T11:45:56.248Z,10.96
2016-11-04T11:46:56.275Z,10.91
2016-11-04T11:47:56.291Z,10.84
2016-11-04T11:48:56.290Z,10.91
2016-11-04T11:49:56.312Z,10.92
2016-11-04T11:50:56.323Z,11.01
2016-11-04T11:51:56.301Z,11.02
2016-11-04T11:52:56.353Z,11.1
2016-11-04T11:53:56.400Z,11.1
2016-11-04T11:54:56.235Z,11.13
2016-11-04T11:55:56.283Z,11.1
2016-11-04T11:56:56.282Z,11.13
2016-11-04T11:57:56.365Z,11.11
2016-11-04T11:58:56.267Z,11.19
2016-11-04T11:59:56.241Z,11.14
2016-11-04T12:00:56.251Z,11.27
2016-11-04T12:01:56.252Z,11.24
2016-11-04T12:02:56.236Z,11.31
2016-11-04T12:03:56.239Z,11.29
2016-11-04T12:04:58.965Z,11.25
2016-11-04T12:05:56.296Z,11.35
2016-11-04T12:06:56.891Z,11.24
2016-11-04T12:08:02.498Z,11.34
2016-11-04T12:08:56.306Z,11.38
2016-11-04T12:09:57.052Z,11.43
2016-11-04T12:10:56.358Z,11.41
2016-11-04T12:11:56.427Z,11.32
2016-11-04T12:12:56.287Z,11.41
2016-11-04T12:13:56.342Z,11.41
2016-11-04T12:14:56.417Z,11.54
2016-11-04T12:15:56.354Z,11.54
2016-11-04T12:16:56.824Z,11.59
2016-11-04T12:17:56.370Z,11.59
2016-11-04T12:18:56.411Z,11.7
2016-11-04T12:19:56.322Z,11.56
2016-11-04T12:20:56.309Z,11.59
2016-11-04T12:21:56.277Z,11.72
2016-11-04T12:22:56.298Z,11.72
2016-11-04T12:23:56.283Z,11.75
2016-11-04T12:24:56.301Z,11.74
2016-11-04T12:25:56.300Z,11.83
2016-11-04T12:26:56.278Z,11.82
2016-11-04T12:27:56.290Z,11.83
2016-11-04T12:28:56.277Z,11.78
2016-11-04T12:29:56.944Z,11.93
2016-11-04T12:30:56.274Z,11.85
2016-11-04T12:31:56.287Z,11.99
2016-11-04T12:32:56.263Z,11.99
2016-11-04T12:33:56.327Z,11.96
2016-11-04T12:34:57.032Z,11.99
2016-11-04T12:35:56.263Z,11.94
2016-11-04T12:36:56.316Z,11.89
2016-11-04T12:37:56.503Z,12.06
2016-11-04T12:38:56.294Z,11.89
2016-11-04T12:39:56.264Z,11.75
2016-11-04T12:40:56.245Z,11.94
2016-11-04T12:41:56.275Z,11.94
2016-11-04T12:42:56.303Z,11.83
2016-11-04T12:43:56.306Z,11.96
2016-11-04T12:44:56.332Z,11.82
2016-11-04T12:45:56.268Z,11.72
2016-11-04T12:46:56.322Z,11.89
2016-11-04T12:47:56.335Z,11.86
2016-11-04T12:48:56.758Z,11.83
2016-11-04T12:49:56.286Z,11.97
2016-11-04T12:50:56.274Z,12.02
2016-11-04T12:51:56.290Z,11.89
2016-11-04T12:52:56.333Z,11.75
2016-11-04T12:53:56.283Z,11.83
2016-11-04T12:54:56.268Z,11.85
2016-11-04T12:55:56.363Z,11.97
2016-11-04T12:56:56.477Z,11.83
2016-11-04T12:57:56.306Z,11.78
2016-11-04T12:58:56.300Z,11.89
2016-11-04T12:59:57.157Z,12.01
2016-11-04T13:00:56.319Z,11.87
2016-11-04T13:01:56.293Z,11.99
2016-11-04T13:02:56.259Z,11.9
2016-11-04T13:03:56.280Z,11.99
2016-11-04T13:04:56.354Z,12.05
2016-11-04T13:05:56.277Z,12.05
2016-11-04T13:06:56.268Z,12.06
2016-11-04T13:07:56.381Z,12.04
2016-11-04T13:08:56.280Z,12.04
2016-11-04T13:09:56.320Z,12.04
2016-11-04T13:10:56.327Z,12.06
2016-11-04T13:11:56.296Z,12.09
2016-11-04T13:12:56.325Z,12.2
2016-11-04T13:13:56.415Z,12.16